createdAt,value
2023-04-25T00:00:21.171Z,24.12
2023-04-25T00:01:24.482Z,24.12
2023-04-25T00:02:27.783Z,24.12
2023-04-25T00:03:31.054Z,24.12
2023-04-25T00:04:33.367Z,24.12
2023-04-25T00:05:35.681Z,24.12
2023-04-25T00:06:37.977Z,24.12
2023-04-25T00:07:40.301Z,24.12
2023-04-25T00:08:43.577Z,24.12
2023-04-25T00:09:46.880Z,24.12
2023-04-25T00:10:50.172Z,24.12
2023-04-25T00:11:53.454Z,24.12
2023-04-25T00:12:56.753Z,24.18
2023-04-25T00:14:00.066Z,24.06
2023-04-25T00:15:03.325Z,24.06
2023-04-25T00:16:06.614Z,24
2023-04-25T00:17:09.925Z,24.06
2023-04-25T00:18:13.210Z,24.06
2023-04-25T00:19:16.517Z,24.06
2023-04-25T00:20:19.810Z,24.12
2023-04-25T00:21:22.104Z,24.06
2023-04-25T00:22:25.399Z,24.12
2023-04-25T00:23:28.682Z,24.06
2023-04-25T00:24:31.972Z,24.06
2023-04-25T00:25:35.281Z,24.06
2023-04-25T00:26:38.564Z,24.06
2023-04-25T00:27:41.856Z,24.12
2023-04-25T00:28:44.174Z,24.06
2023-04-25T00:29:46.483Z,24.06
2023-04-25T00:30:49.761Z,24
2023-04-25T00:31:53.059Z,24.06
2023-04-25T00:32:56.662Z,24
2023-04-25T00:33:59.945Z,24
2023-04-25T00:35:03.231Z,24.06
2023-04-25T00:36:06.543Z,24
2023-04-25T00:37:09.840Z,24.06
2023-04-25T00:38:13.112Z,24
2023-04-25T00:39:16.444Z,24.06
2023-04-25T00:40:19.698Z,24
2023-04-25T00:41:22.995Z,24.06
2023-04-25T00:42:26.293Z,24
2023-04-25T00:43:28.591Z,24.06
2023-04-25T00:44:31.879Z,24.06
2023-04-25T00:45:35.181Z,24
2023-04-25T00:46:38.464Z,24
2023-04-25T00:47:41.760Z,24
2023-04-25T00:48:45.069Z,24
2023-04-25T00:49:48.353Z,24
2023-04-25T00:50:50.667Z,24
2023-04-25T00:51:52.968Z,24
2023-04-25T00:52:55.332Z,24
2023-04-25T00:53:57.586Z,24.06
2023-04-25T00:55:00.882Z,24
2023-04-25T00:56:04.173Z,24
2023-04-25T00:57:07.449Z,24
2023-04-25T00:58:10.771Z,24
2023-04-25T00:59:14.043Z,24
2023-04-25T01:00:17.332Z,24
2023-04-25T01:01:20.648Z,24
2023-04-25T01:02:23.919Z,24
2023-04-25T01:03:27.216Z,24
2023-04-25T01:04:30.505Z,24.06
2023-04-25T01:05:33.788Z,24
2023-04-25T01:06:37.086Z,24
2023-04-25T01:07:39.449Z,24
2023-04-25T01:08:42.746Z,23.93
2023-04-25T01:09:45.966Z,23.93
2023-04-25T01:10:49.263Z,23.93
2023-04-25T01:11:52.555Z,23.93
2023-04-25T01:12:55.850Z,24
2023-04-25T01:13:59.163Z,24
2023-04-25T01:15:01.469Z,23.93
2023-04-25T01:16:03.890Z,24
2023-04-25T01:17:07.057Z,23.93
2023-04-25T01:18:10.346Z,24
2023-04-25T01:19:13.656Z,24
2023-04-25T01:20:16.945Z,24
2023-04-25T01:21:20.266Z,24
2023-04-25T01:22:23.522Z,24
2023-04-25T01:23:26.827Z,24
2023-04-25T01:24:30.105Z,24
2023-04-25T01:25:33.423Z,23.93
2023-04-25T01:26:36.701Z,24
2023-04-25T01:27:40.003Z,24
2023-04-25T01:28:43.331Z,24.06
2023-04-25T01:29:45.590Z,24
2023-04-25T01:30:48.897Z,24
2023-04-25T01:31:52.171Z,24
2023-04-25T01:32:55.466Z,23.93
2023-04-25T01:33:58.774Z,23.93
2023-04-25T01:35:02.036Z,23.93
2023-04-25T01:36:05.329Z,23.93
2023-04-25T01:37:07.657Z,24
2023-04-25T01:38:09.969Z,24
2023-04-25T01:39:12.278Z,24.06
2023-04-25T01:40:14.573Z,24
2023-04-25T01:41:16.890Z,24.06
2023-04-25T01:42:19.199Z,24
2023-04-25T01:43:21.499Z,24
2023-04-25T01:44:23.815Z,24
2023-04-25T01:45:27.099Z,23.93
2023-04-25T01:46:30.406Z,23.93
2023-04-25T01:47:33.704Z,23.93
2023-04-25T01:48:36.984Z,24
2023-04-25T01:49:40.285Z,24
2023-04-25T01:50:43.581Z,24
2023-04-25T01:51:46.869Z,23.93
2023-04-25T01:52:50.158Z,23.93
2023-04-25T01:53:53.446Z,24
2023-04-25T01:54:56.744Z,23.93
2023-04-25T01:56:00.159Z,23.93
2023-04-25T01:57:03.515Z,23.93
2023-04-25T01:58:05.747Z,23.93
2023-04-25T01:59:09.049Z,23.93
2023-04-25T02:00:12.331Z,23.93
2023-04-25T02:01:15.634Z,23.93
2023-04-25T02:02:18.913Z,23.93
2023-04-25T02:03:22.212Z,23.93
2023-04-25T02:04:25.514Z,23.93
2023-04-25T02:05:27.827Z,23.93
2023-04-25T02:06:30.115Z,24
2023-04-25T02:07:32.449Z,24
2023-04-25T02:08:34.749Z,23.93
2023-04-25T02:09:38.043Z,23.93
2023-04-25T02:10:41.324Z,23.93
2023-04-25T02:11:44.610Z,23.93
2023-04-25T02:12:47.926Z,23.93
2023-04-25T02:13:51.220Z,23.93
2023-04-25T02:14:54.580Z,23.93
2023-04-25T02:15:57.837Z,23.93
2023-04-25T02:17:01.098Z,23.93
2023-04-25T02:18:04.381Z,23.93
2023-04-25T02:19:07.669Z,23.93
2023-04-25T02:20:10.945Z,23.93
2023-04-25T02:21:14.274Z,23.93
2023-04-25T02:22:16.556Z,23.93
2023-04-25T02:23:19.847Z,23.93
2023-04-25T02:24:23.138Z,23.93
2023-04-25T02:25:26.444Z,23.87
2023-04-25T02:26:29.729Z,23.93
2023-04-25T02:27:33.013Z,23.93
2023-04-25T02:28:36.363Z,23.87
2023-04-25T02:29:38.629Z,23.87
2023-04-25T02:30:40.921Z,23.87
2023-04-25T02:31:43.245Z,23.87
2023-04-25T02:32:45.539Z,23.93
2023-04-25T02:33:48.840Z,23.87
2023-04-25T02:34:52.126Z,23.93
2023-04-25T02:35:55.423Z,23.87
2023-04-25T02:36:58.713Z,23.87
2023-04-25T02:38:02.049Z,23.93
2023-04-25T02:39:05.326Z,23.93
2023-04-25T02:40:08.597Z,23.87
2023-04-25T02:41:11.904Z,23.87
2023-04-25T02:42:15.172Z,23.87
2023-04-25T02:43:18.479Z,23.87
2023-04-25T02:44:21.863Z,23.93
2023-04-25T02:45:25.042Z,23.87
2023-04-25T02:46:27.361Z,23.87
2023-04-25T02:47:30.653Z,23.93
2023-04-25T02:48:33.962Z,23.87
2023-04-25T02:49:37.222Z,23.87
2023-04-25T02:50:40.591Z,23.87
2023-04-25T02:51:43.830Z,23.87
2023-04-25T02:52:47.116Z,23.87
2023-04-25T02:53:49.427Z,23.87
2023-04-25T02:54:51.792Z,23.81
2023-04-25T02:55:54.048Z,23.87
2023-04-25T02:56:56.362Z,23.81
2023-04-25T02:57:59.638Z,23.81
2023-04-25T02:59:02.914Z,23.81
2023-04-25T03:00:06.217Z,23.87
2023-04-25T03:01:09.502Z,23.81
2023-04-25T03:02:12.828Z,23.87
2023-04-25T03:03:16.108Z,23.87
2023-04-25T03:04:19.399Z,23.81
2023-04-25T03:05:22.684Z,23.87
2023-04-25T03:06:25.986Z,23.87
2023-04-25T03:07:29.273Z,23.87
2023-04-25T03:08:32.560Z,23.81
2023-04-25T03:09:35.875Z,23.81
2023-04-25T03:10:38.159Z,23.81
2023-04-25T03:11:41.452Z,23.81
2023-04-25T03:12:44.743Z,23.81
2023-04-25T03:13:48.075Z,23.81
2023-04-25T03:14:51.329Z,23.87
2023-04-25T03:15:54.620Z,23.81
2023-04-25T03:16:57.919Z,23.87
2023-04-25T03:18:00.230Z,23.87
2023-04-25T03:19:03.837Z,23.87
2023-04-25T03:20:06.152Z,23.75
2023-04-25T03:21:08.443Z,23.81
2023-04-25T03:22:11.744Z,23.81
2023-04-25T03:23:15.046Z,23.81
2023-04-25T03:24:18.348Z,23.87
2023-04-25T03:25:21.645Z,23.87
2023-04-25T03:26:24.929Z,23.81
2023-04-25T03:27:28.218Z,23.87
2023-04-25T03:28:31.543Z,23.87
2023-04-25T03:29:34.802Z,23.87
2023-04-25T03:30:38.116Z,23.87
2023-04-25T03:31:41.377Z,23.87
2023-04-25T03:32:44.678Z,23.81
2023-04-25T03:33:47.974Z,23.87
2023-04-25T03:34:50.282Z,23.87
2023-04-25T03:35:53.615Z,23.87
2023-04-25T03:36:56.870Z,23.87
2023-04-25T03:38:00.164Z,23.81
2023-04-25T03:39:03.496Z,23.87
2023-04-25T03:40:06.776Z,23.87
2023-04-25T03:41:10.072Z,23.87
2023-04-25T03:42:12.362Z,23.81
2023-04-25T03:44:17.975Z,23.87
2023-04-25T03:45:21.266Z,23.87
2023-04-25T03:46:23.592Z,23.81
2023-04-25T03:47:25.886Z,23.81
2023-04-25T03:48:29.161Z,23.87
2023-04-25T03:49:32.490Z,23.87
2023-04-25T03:50:35.757Z,23.87
2023-04-25T03:51:39.044Z,23.81
2023-04-25T03:52:42.361Z,23.81
2023-04-25T03:53:45.713Z,23.87
2023-04-25T03:54:48.922Z,23.87
2023-04-25T03:55:52.232Z,23.87
2023-04-25T03:56:55.503Z,23.87
2023-04-25T03:57:58.796Z,23.87
2023-04-25T03:59:02.104Z,23.81
2023-04-25T04:00:05.385Z,23.87
2023-04-25T04:01:07.732Z,23.81
2023-04-25T04:02:10.998Z,23.81
2023-04-25T04:03:14.276Z,23.87
2023-04-25T04:04:17.562Z,23.81
2023-04-25T04:05:20.866Z,23.81
2023-04-25T04:06:24.155Z,23.81
2023-04-25T04:07:27.473Z,23.87
2023-04-25T04:08:29.768Z,23.81
2023-04-25T04:09:32.075Z,23.81
2023-04-25T04:10:35.372Z,23.87
2023-04-25T04:11:38.671Z,23.87
2023-04-25T04:12:41.939Z,23.81
2023-04-25T04:13:45.254Z,23.81
2023-04-25T04:14:48.533Z,23.75
2023-04-25T04:15:51.838Z,23.81
2023-04-25T04:16:55.116Z,23.81
2023-04-25T04:17:58.401Z,23.81
2023-04-25T04:19:01.716Z,23.81
2023-04-25T04:20:04.984Z,23.81
2023-04-25T04:21:08.284Z,23.87
2023-04-25T04:22:11.599Z,23.81
2023-04-25T04:23:13.893Z,23.81
2023-04-25T04:24:17.186Z,23.87
2023-04-25T04:25:20.468Z,23.81
2023-04-25T04:26:23.755Z,23.87
2023-04-25T04:27:27.062Z,23.81
2023-04-25T04:28:30.357Z,23.81
2023-04-25T04:29:33.640Z,23.81
2023-04-25T04:30:35.979Z,23.81
2023-04-25T04:31:38.262Z,23.87
2023-04-25T04:32:40.567Z,23.81
2023-04-25T04:33:42.935Z,23.81
2023-04-25T04:34:46.165Z,23.81
2023-04-25T04:35:49.486Z,23.75
2023-04-25T04:36:52.753Z,23.75
2023-04-25T04:37:56.043Z,23.81
2023-04-25T04:38:59.352Z,23.81
2023-04-25T04:40:02.628Z,23.81
2023-04-25T04:41:05.964Z,23.81
2023-04-25T04:42:09.237Z,23.81
2023-04-25T04:43:12.505Z,23.81
2023-04-25T04:44:15.883Z,23.81
2023-04-25T04:45:19.117Z,23.81
2023-04-25T04:46:22.389Z,23.81
2023-04-25T04:47:24.703Z,23.75
2023-04-25T04:48:27.990Z,23.81
2023-04-25T04:49:31.262Z,23.81
2023-04-25T04:50:34.571Z,23.81
2023-04-25T04:51:37.872Z,23.75
2023-04-25T04:52:41.159Z,23.81
2023-04-25T04:53:44.539Z,23.81
2023-04-25T04:54:46.764Z,23.81
2023-04-25T04:55:49.050Z,23.75
2023-04-25T04:56:52.363Z,23.81
2023-04-25T04:57:54.663Z,23.75
2023-04-25T04:58:56.981Z,23.81
2023-04-25T05:00:00.261Z,23.81
2023-04-25T05:01:03.563Z,23.81
2023-04-25T05:02:06.893Z,23.81
2023-04-25T05:03:10.139Z,23.75
2023-04-25T05:04:13.421Z,23.81
2023-04-25T05:05:16.720Z,23.81
2023-04-25T05:06:20.028Z,23.81
2023-04-25T05:07:23.304Z,23.87
2023-04-25T05:08:26.612Z,23.75
2023-04-25T05:09:29.907Z,23.81
2023-04-25T05:10:33.197Z,23.87
2023-04-25T05:11:36.480Z,23.81
2023-04-25T05:12:38.787Z,23.81
2023-04-25T05:13:42.272Z,23.81
2023-04-25T05:14:45.383Z,23.81
2023-04-25T05:15:47.723Z,23.81
2023-04-25T05:16:50.990Z,23.87
2023-04-25T05:17:54.283Z,23.81
2023-04-25T05:18:57.559Z,23.87
2023-04-25T05:19:59.875Z,23.81
2023-04-25T05:21:02.197Z,23.75
2023-04-25T05:22:05.495Z,23.75
2023-04-25T05:23:08.758Z,23.81
2023-04-25T05:24:12.090Z,23.81
2023-04-25T05:25:15.357Z,23.81
2023-04-25T05:26:18.650Z,23.81
2023-04-25T05:27:21.943Z,23.81
2023-04-25T05:28:25.228Z,23.81
2023-04-25T05:29:28.560Z,23.81
2023-04-25T05:30:31.810Z,23.81
2023-04-25T05:31:35.118Z,23.81
2023-04-25T05:32:38.412Z,23.81
2023-04-25T05:33:41.702Z,23.81
2023-04-25T05:34:44.047Z,23.87
2023-04-25T05:35:47.306Z,23.81
2023-04-25T05:36:50.581Z,23.81
2023-04-25T05:37:53.873Z,23.81
2023-04-25T05:38:57.162Z,23.75
2023-04-25T05:40:00.457Z,23.81
2023-04-25T05:41:03.740Z,23.81
2023-04-25T05:42:06.069Z,23.81
2023-04-25T05:43:08.362Z,23.75
2023-04-25T05:44:10.686Z,23.75
2023-04-25T05:45:12.992Z,23.81
2023-04-25T05:46:16.278Z,23.81
2023-04-25T05:47:19.577Z,23.75
2023-04-25T05:48:22.865Z,23.81
2023-04-25T05:49:26.141Z,23.81
2023-04-25T05:50:29.449Z,23.75
2023-04-25T05:51:32.731Z,23.75
2023-04-25T05:52:36.022Z,23.75
2023-04-25T05:53:39.328Z,23.75
2023-04-25T05:54:42.624Z,23.75
2023-04-25T05:55:45.896Z,23.75
2023-04-25T05:56:49.186Z,23.75
2023-04-25T05:57:52.479Z,23.75
2023-04-25T05:58:54.801Z,23.75
2023-04-25T05:59:58.081Z,23.75
2023-04-25T06:01:01.876Z,23.75
2023-04-25T06:02:05.171Z,23.68
2023-04-25T06:03:08.468Z,23.75
2023-04-25T06:04:11.757Z,23.75
2023-04-25T06:05:15.029Z,23.75
2023-04-25T06:06:17.355Z,23.75
2023-04-25T06:07:19.672Z,23.75
2023-04-25T06:08:21.966Z,23.81
2023-04-25T06:09:24.284Z,23.75
2023-04-25T06:10:27.582Z,23.75
2023-04-25T06:11:30.917Z,23.75
2023-04-25T06:12:34.160Z,23.75
2023-04-25T06:13:37.445Z,23.75
2023-04-25T06:14:40.762Z,23.75
2023-04-25T06:15:44.026Z,23.75
2023-04-25T06:16:47.333Z,23.75
2023-04-25T06:17:50.622Z,23.75
2023-04-25T06:18:53.916Z,23.75
2023-04-25T06:19:57.220Z,23.75
2023-04-25T06:21:00.510Z,23.75
2023-04-25T06:22:03.781Z,23.75
2023-04-25T06:23:06.102Z,23.81
2023-04-25T06:24:09.375Z,23.75
2023-04-25T06:25:12.672Z,23.75
2023-04-25T06:26:15.968Z,23.68
2023-04-25T06:27:19.282Z,23.75
2023-04-25T06:28:22.542Z,23.75
2023-04-25T06:29:25.878Z,23.75
2023-04-25T06:30:28.168Z,23.75
2023-04-25T06:31:30.470Z,23.81
2023-04-25T06:32:33.759Z,23.87
2023-04-25T06:33:37.137Z,23.81
2023-04-25T06:34:40.338Z,23.81
2023-04-25T06:35:43.634Z,23.81
2023-04-25T06:36:46.923Z,23.81
2023-04-25T06:37:50.223Z,23.81
2023-04-25T06:38:53.508Z,23.81
2023-04-25T06:39:56.813Z,23.81
2023-04-25T06:41:00.106Z,23.81
2023-04-25T06:42:03.388Z,23.75
2023-04-25T06:43:06.688Z,23.75
2023-04-25T06:44:09.967Z,23.81
2023-04-25T06:45:12.278Z,23.81
2023-04-25T06:46:15.577Z,23.81
2023-04-25T06:47:18.978Z,23.81
2023-04-25T06:48:22.157Z,23.81
2023-04-25T06:49:25.475Z,23.81
2023-04-25T06:50:28.739Z,23.81
2023-04-25T06:51:32.024Z,23.81
2023-04-25T06:53:37.657Z,23.87
2023-04-25T06:54:39.991Z,23.87
2023-04-25T06:55:42.292Z,23.87
2023-04-25T06:57:47.855Z,23.81
2023-04-25T06:58:50.172Z,23.87
2023-04-25T06:59:52.474Z,23.87
2023-04-25T07:00:54.797Z,23.87
2023-04-25T07:01:57.095Z,23.81
2023-04-25T07:03:00.393Z,23.87
2023-04-25T07:04:03.684Z,23.87
2023-04-25T07:05:06.974Z,23.87
2023-04-25T07:06:10.266Z,23.87
2023-04-25T07:07:13.564Z,23.87
2023-04-25T07:08:16.844Z,23.87
2023-04-25T07:09:20.136Z,23.81
2023-04-25T07:10:23.448Z,23.81
2023-04-25T07:11:26.724Z,23.87
2023-04-25T07:12:30.027Z,23.87
2023-04-25T07:13:33.331Z,23.87
2023-04-25T07:14:36.628Z,23.87
2023-04-25T07:15:38.920Z,23.87
2023-04-25T07:16:42.208Z,23.87
2023-04-25T07:17:45.524Z,23.87
2023-04-25T07:18:48.851Z,23.87
2023-04-25T07:19:52.083Z,23.87
2023-04-25T07:20:55.377Z,23.93
2023-04-25T07:21:58.681Z,23.87
2023-04-25T07:23:00.979Z,23.87
2023-04-25T07:24:03.314Z,23.87
2023-04-25T07:25:05.665Z,23.87
2023-04-25T07:26:07.899Z,23.93
2023-04-25T07:27:11.227Z,23.87
2023-04-25T07:28:14.494Z,23.87
2023-04-25T07:29:17.805Z,23.87
2023-04-25T07:30:21.075Z,23.93
2023-04-25T07:31:24.363Z,23.93
2023-04-25T07:32:27.681Z,23.87
2023-04-25T07:33:30.948Z,23.93
2023-04-25T07:34:34.247Z,23.87
2023-04-25T07:35:37.574Z,23.87
2023-04-25T07:36:40.847Z,23.87
2023-04-25T07:37:44.272Z,23.87
2023-04-25T07:38:47.403Z,23.87
2023-04-25T07:39:49.833Z,23.87
2023-04-25T07:40:53.134Z,23.87
2023-04-25T07:41:56.306Z,23.87
2023-04-25T07:42:59.665Z,23.87
2023-04-25T07:44:02.897Z,23.93
2023-04-25T07:45:06.182Z,23.93
2023-04-25T07:46:09.467Z,23.93
2023-04-25T07:47:11.797Z,23.93
2023-04-25T07:48:14.100Z,23.93
2023-04-25T07:49:16.416Z,23.93
2023-04-25T07:50:18.714Z,23.93
2023-04-25T07:51:21.995Z,23.93
2023-04-25T07:52:25.283Z,23.93
2023-04-25T07:53:28.616Z,24
2023-04-25T07:54:31.914Z,23.93
2023-04-25T07:55:35.190Z,23.93
2023-04-25T07:56:38.574Z,23.93
2023-04-25T07:57:41.765Z,23.93
2023-04-25T07:58:45.065Z,23.93
2023-04-25T07:59:48.355Z,24
2023-04-25T08:00:51.670Z,23.93
2023-04-25T08:01:54.934Z,23.93
2023-04-25T08:02:58.248Z,23.93
2023-04-25T08:04:00.538Z,24
2023-04-25T08:05:03.827Z,23.93
2023-04-25T08:06:07.107Z,23.93
2023-04-25T08:07:10.425Z,24
2023-04-25T08:08:13.710Z,23.93
2023-04-25T08:09:16.997Z,23.93
2023-04-25T08:10:20.301Z,24
2023-04-25T08:11:22.617Z,24
2023-04-25T08:12:24.920Z,24
2023-04-25T08:13:27.226Z,23.93
2023-04-25T08:14:29.552Z,23.93
2023-04-25T08:15:32.821Z,24
2023-04-25T08:16:36.156Z,24
2023-04-25T08:17:39.408Z,24
2023-04-25T08:18:42.698Z,23.93
2023-04-25T08:19:45.994Z,24
2023-04-25T08:20:49.283Z,24
2023-04-25T08:21:52.569Z,24
2023-04-25T08:22:55.873Z,24.06
2023-04-25T08:23:59.152Z,24
2023-04-25T08:25:02.639Z,23.93
2023-04-25T08:26:05.932Z,24
2023-04-25T08:27:09.250Z,23.93
2023-04-25T08:28:11.531Z,24
2023-04-25T08:29:14.834Z,24
2023-04-25T08:30:18.116Z,24
2023-04-25T08:31:21.454Z,24
2023-04-25T08:32:24.766Z,24
2023-04-25T08:33:28.077Z,24
2023-04-25T08:34:31.297Z,24
2023-04-25T08:35:33.612Z,24
2023-04-25T08:36:36.096Z,24
2023-04-25T08:37:39.215Z,24
2023-04-25T08:38:42.492Z,23.93
2023-04-25T08:39:44.818Z,24
2023-04-25T08:40:47.090Z,24
2023-04-25T08:41:50.405Z,24
2023-04-25T08:42:53.856Z,24
2023-04-25T08:43:57.125Z,23.93
2023-04-25T08:45:00.545Z,23.93
2023-04-25T08:46:03.693Z,23.93
2023-04-25T08:47:06.037Z,23.93
2023-04-25T08:48:09.369Z,24
2023-04-25T08:49:12.590Z,24
2023-04-25T08:50:15.970Z,24
2023-04-25T08:51:19.241Z,24
2023-04-25T08:52:22.587Z,24
2023-04-25T08:53:25.817Z,24
2023-04-25T08:54:28.922Z,24
2023-04-25T08:55:32.222Z,24
2023-04-25T08:56:35.648Z,24
2023-04-25T08:57:39.024Z,24
2023-04-25T08:58:42.078Z,24
2023-04-25T08:59:45.457Z,24.06
2023-04-25T09:00:47.830Z,24.06
2023-04-25T09:01:50.178Z,24
2023-04-25T09:02:52.406Z,24
2023-04-25T09:03:55.804Z,24
2023-04-25T09:04:58.990Z,24
2023-04-25T09:06:02.460Z,24
2023-04-25T09:07:05.477Z,24
2023-04-25T09:08:08.990Z,24
2023-04-25T09:09:12.161Z,24
2023-04-25T09:10:15.542Z,24
2023-04-25T09:11:18.829Z,24.06
2023-04-25T09:12:22.229Z,24
2023-04-25T09:13:25.416Z,23.93
2023-04-25T09:14:28.690Z,23.93
2023-04-25T09:15:31.994Z,23.93
2023-04-25T09:16:34.308Z,23.93
2023-04-25T09:17:37.611Z,23.93
2023-04-25T09:18:40.913Z,23.93
2023-04-25T09:19:44.257Z,23.87
2023-04-25T09:20:47.340Z,23.93
2023-04-25T09:21:50.791Z,23.81
2023-04-25T09:22:53.866Z,23.87
2023-04-25T09:23:56.393Z,23.81
2023-04-25T09:24:58.799Z,23.87
2023-04-25T09:26:00.813Z,23.87
2023-04-25T09:27:03.304Z,23.93
2023-04-25T09:29:09.687Z,23.87
2023-04-25T09:30:13.177Z,23.87
2023-04-25T09:31:16.275Z,23.81
2023-04-25T09:32:19.612Z,23.87
2023-04-25T09:33:22.862Z,23.87
2023-04-25T09:34:26.346Z,23.87
2023-04-25T09:35:29.674Z,23.87
2023-04-25T09:36:32.737Z,23.87
2023-04-25T09:37:36.165Z,23.87
2023-04-25T09:38:39.329Z,23.81
2023-04-25T09:39:42.636Z,23.81
2023-04-25T09:40:44.938Z,23.87
2023-04-25T09:41:48.284Z,23.87
2023-04-25T09:42:51.524Z,23.87
2023-04-25T09:43:54.803Z,23.87
2023-04-25T09:44:58.114Z,23.87
2023-04-25T09:46:01.424Z,23.87
2023-04-25T09:47:04.669Z,23.87
2023-04-25T09:48:08.113Z,23.87
2023-04-25T09:49:10.304Z,23.87
2023-04-25T09:50:12.626Z,23.87
2023-04-25T09:51:14.919Z,23.87
2023-04-25T09:52:18.433Z,23.81
2023-04-25T09:53:21.637Z,23.81
2023-04-25T09:54:25.023Z,23.87
2023-04-25T09:55:28.193Z,23.81
2023-04-25T09:56:31.719Z,23.81
2023-04-25T09:57:34.794Z,23.81
2023-04-25T09:58:38.133Z,23.87
2023-04-25T09:59:41.584Z,23.75
2023-04-25T10:00:44.846Z,23.75
2023-04-25T10:01:48.090Z,23.75
2023-04-25T10:02:51.274Z,23.68
2023-04-25T10:03:54.541Z,23.68
2023-04-25T10:04:57.825Z,23.75
2023-04-25T10:06:01.174Z,23.75
2023-04-25T10:07:03.469Z,23.81
2023-04-25T10:08:06.725Z,23.75
2023-04-25T10:09:10.022Z,23.75
2023-04-25T10:10:13.378Z,23.68
2023-04-25T10:11:16.599Z,23.75
2023-04-25T10:12:19.889Z,23.75
2023-04-25T10:13:22.199Z,23.75
2023-04-25T10:14:24.562Z,23.68
2023-04-25T10:15:26.830Z,23.68
2023-04-25T10:16:29.138Z,23.68
2023-04-25T10:17:32.491Z,23.68
2023-04-25T10:18:35.718Z,23.68
2023-04-25T10:19:39.030Z,23.75
2023-04-25T10:20:42.319Z,23.68
2023-04-25T10:21:45.590Z,23.68
2023-04-25T10:22:48.884Z,23.68
2023-04-25T10:23:52.171Z,23.68
2023-04-25T10:24:55.470Z,23.62
2023-04-25T10:25:58.761Z,23.68
2023-04-25T10:27:02.090Z,23.62
2023-04-25T10:28:05.358Z,23.62
2023-04-25T10:29:08.634Z,23.62
2023-04-25T10:30:10.964Z,23.62
2023-04-25T10:31:14.245Z,23.56
2023-04-25T10:32:17.502Z,23.62
2023-04-25T10:33:20.808Z,23.62
2023-04-25T10:34:24.144Z,23.56
2023-04-25T10:35:27.393Z,23.56
2023-04-25T10:36:30.771Z,23.56
2023-04-25T10:37:33.000Z,23.56
2023-04-25T10:38:35.297Z,23.62
2023-04-25T10:39:38.607Z,23.56
2023-04-25T10:40:41.906Z,23.56
2023-04-25T10:41:45.202Z,23.56
2023-04-25T10:42:48.518Z,23.62
2023-04-25T10:43:51.752Z,23.56
2023-04-25T10:44:55.080Z,23.62
2023-04-25T10:45:58.404Z,23.62
2023-04-25T10:47:01.673Z,23.62
2023-04-25T10:48:04.954Z,23.62
2023-04-25T10:49:08.297Z,23.62
2023-04-25T10:50:11.564Z,23.62
2023-04-25T10:51:14.903Z,23.62
2023-04-25T10:52:17.268Z,23.62
2023-04-25T10:53:20.558Z,23.68
2023-04-25T10:54:23.915Z,23.62
2023-04-25T10:55:27.260Z,23.62
2023-04-25T10:56:30.495Z,23.62
2023-04-25T10:57:33.762Z,23.68
2023-04-25T10:58:36.973Z,23.62
2023-04-25T10:59:39.341Z,23.68
2023-04-25T11:00:41.682Z,23.62
2023-04-25T11:01:44.984Z,23.68
2023-04-25T11:02:48.300Z,23.68
2023-04-25T11:03:51.366Z,23.62
2023-04-25T11:04:54.664Z,23.62
2023-04-25T11:05:58.170Z,23.68
2023-04-25T11:07:01.264Z,23.62
2023-04-25T11:08:04.698Z,23.62
2023-04-25T11:09:07.918Z,23.62
2023-04-25T11:10:11.266Z,23.62
2023-04-25T11:11:14.628Z,23.62
2023-04-25T11:12:17.897Z,23.62
2023-04-25T11:13:21.200Z,23.68
2023-04-25T11:14:23.574Z,23.62
2023-04-25T11:15:26.593Z,23.62
2023-04-25T11:16:30.042Z,23.62
2023-04-25T11:17:33.374Z,23.62
2023-04-25T11:18:36.625Z,23.62
2023-04-25T11:19:39.949Z,23.62
2023-04-25T11:20:43.058Z,23.62
2023-04-25T11:21:45.562Z,23.62
2023-04-25T11:22:47.800Z,23.62
2023-04-25T11:23:49.999Z,23.62
2023-04-25T11:24:52.348Z,23.62
2023-04-25T11:25:54.716Z,23.56
2023-04-25T11:26:57.136Z,23.62
2023-04-25T11:28:00.226Z,23.62
2023-04-25T11:29:04.243Z,23.68
2023-04-25T11:30:07.465Z,23.62
2023-04-25T11:31:10.752Z,23.56
2023-04-25T11:32:14.025Z,23.62
2023-04-25T11:33:17.167Z,23.62
2023-04-25T11:34:20.627Z,23.62
2023-04-25T11:35:23.950Z,23.56
2023-04-25T11:36:27.098Z,23.56
2023-04-25T11:37:30.512Z,23.62
2023-04-25T11:38:33.845Z,23.62
2023-04-25T11:39:37.053Z,23.62
2023-04-25T11:40:39.428Z,23.62
2023-04-25T11:41:45.994Z,23.62
2023-04-25T11:42:45.971Z,23.68
2023-04-25T11:43:49.112Z,23.56
2023-04-25T11:44:52.542Z,23.62
2023-04-25T11:45:55.839Z,23.56
2023-04-25T11:46:59.168Z,23.62
2023-04-25T11:48:01.490Z,23.62
2023-04-25T11:49:04.100Z,23.62
2023-04-25T11:50:06.288Z,23.62
2023-04-25T11:51:08.620Z,23.56
2023-04-25T11:52:12.219Z,23.62
2023-04-25T11:53:15.343Z,23.62
2023-04-25T11:54:18.649Z,23.62
2023-04-25T11:55:21.926Z,23.56
2023-04-25T11:56:25.260Z,23.62
2023-04-25T11:57:28.500Z,23.62
2023-04-25T11:58:32.351Z,23.56
2023-04-25T11:59:35.031Z,23.56
2023-04-25T12:00:38.483Z,23.56
2023-04-25T12:01:41.658Z,23.56
2023-04-25T12:02:44.983Z,23.56
2023-04-25T12:03:48.312Z,23.56
2023-04-25T12:04:50.978Z,23.56
2023-04-25T12:05:53.869Z,23.62
2023-04-25T12:06:57.173Z,23.62
2023-04-25T12:08:00.282Z,23.62
2023-04-25T12:09:03.742Z,23.56
2023-04-25T12:10:07.276Z,23.56
2023-04-25T12:11:10.621Z,23.56
2023-04-25T12:12:12.942Z,23.62
2023-04-25T12:13:15.287Z,23.62
2023-04-25T12:14:17.547Z,23.56
2023-04-25T12:15:19.794Z,23.56
2023-04-25T12:16:22.965Z,23.62
2023-04-25T12:17:26.409Z,23.62
2023-04-25T12:18:28.828Z,23.62
2023-04-25T12:19:32.016Z,23.62
2023-04-25T12:20:35.349Z,23.62
2023-04-25T12:21:38.601Z,23.62
2023-04-25T12:22:41.764Z,23.56
2023-04-25T12:23:45.203Z,23.62
2023-04-25T12:24:48.398Z,23.62
2023-04-25T12:25:51.685Z,23.56
2023-04-25T12:26:55.022Z,23.56
2023-04-25T12:27:58.284Z,23.56
2023-04-25T12:29:01.691Z,23.56
2023-04-25T12:30:04.868Z,23.62
2023-04-25T12:31:08.239Z,23.56
2023-04-25T12:32:10.607Z,23.56
2023-04-25T12:33:13.783Z,23.56
2023-04-25T12:34:17.114Z,23.62
2023-04-25T12:35:20.251Z,23.5
2023-04-25T12:36:22.723Z,23.56
2023-04-25T12:37:25.030Z,23.56
2023-04-25T12:38:27.379Z,23.56
2023-04-25T12:39:29.675Z,23.62
2023-04-25T12:40:32.988Z,23.56
2023-04-25T12:41:36.251Z,23.56
2023-04-25T12:42:39.352Z,23.56
2023-04-25T12:43:42.911Z,23.56
2023-04-25T12:44:46.113Z,23.56
2023-04-25T12:45:49.333Z,23.56
2023-04-25T12:46:52.714Z,23.56
2023-04-25T12:47:55.912Z,23.56
2023-04-25T12:48:59.119Z,23.56
2023-04-25T12:50:02.552Z,23.62
2023-04-25T12:51:05.721Z,23.56
2023-04-25T12:52:09.163Z,23.56
2023-04-25T12:53:11.435Z,23.56
2023-04-25T12:54:14.734Z,23.56
2023-04-25T12:55:18.081Z,23.62
2023-04-25T12:56:21.301Z,23.56
2023-04-25T12:57:24.641Z,23.56
2023-04-25T12:58:27.783Z,23.56
2023-04-25T12:59:31.209Z,23.56
2023-04-25T13:00:33.454Z,23.56
2023-04-25T13:01:35.860Z,23.56
2023-04-25T13:02:38.176Z,23.56
2023-04-25T13:03:40.546Z,23.62
2023-04-25T13:04:43.801Z,23.56
2023-04-25T13:05:47.048Z,23.56
2023-04-25T13:06:50.335Z,23.56
2023-04-25T13:07:53.668Z,23.56
2023-04-25T13:08:56.758Z,23.56
2023-04-25T13:10:00.286Z,23.62
2023-04-25T13:11:03.558Z,23.56
2023-04-25T13:12:06.809Z,23.56
2023-04-25T13:13:10.071Z,23.62
2023-04-25T13:14:13.407Z,23.56
2023-04-25T13:15:16.591Z,23.56
2023-04-25T13:16:19.939Z,23.56
2023-04-25T13:17:22.270Z,23.56
2023-04-25T13:18:25.627Z,23.56
2023-04-25T13:19:28.882Z,23.56
2023-04-25T13:20:32.184Z,23.56
2023-04-25T13:21:35.511Z,23.56
2023-04-25T13:22:38.581Z,23.56
2023-04-25T13:23:41.870Z,23.56
2023-04-25T13:24:44.319Z,23.56
2023-04-25T13:25:46.658Z,23.56
2023-04-25T13:26:49.934Z,23.56
2023-04-25T13:27:52.196Z,23.56
2023-04-25T13:28:54.634Z,23.5
2023-04-25T13:29:57.849Z,23.56
2023-04-25T13:31:01.165Z,23.56
2023-04-25T13:32:04.723Z,23.56
2023-04-25T13:33:08.014Z,23.56
2023-04-25T13:34:11.262Z,23.56
2023-04-25T13:35:14.486Z,23.56
2023-04-25T13:36:17.831Z,23.62
2023-04-25T13:37:21.086Z,23.62
2023-04-25T13:38:24.285Z,23.5
2023-04-25T13:39:27.579Z,23.56
2023-04-25T13:40:30.888Z,23.56
2023-04-25T13:41:34.167Z,23.56
2023-04-25T13:42:36.469Z,23.56
2023-04-25T13:43:39.889Z,23.56
2023-04-25T13:44:43.202Z,23.62
2023-04-25T13:45:46.488Z,23.62
2023-04-25T13:46:49.778Z,23.56